createdAt,value
2017-12-02T00:02:08.083Z,29.50
2017-12-02T00:04:37.303Z,28.87
2017-12-02T00:07:06.566Z,30.40
2017-12-02T00:09:36.548Z,29.87
2017-12-02T00:12:05.728Z,35.20
2017-12-02T00:14:35.999Z,31.60
2017-12-02T00:17:05.219Z,31.90
2017-12-02T00:19:34.612Z,33.10
2017-12-02T00:22:03.808Z,31.50
2017-12-02T00:24:34.647Z,30.13
2017-12-02T00:27:03.882Z,32.70
2017-12-02T00:29:33.122Z,33.93
2017-12-02T00:32:02.341Z,33.53
2017-12-02T00:34:31.555Z,29.53
2017-12-02T00:37:01.610Z,34.27
2017-12-02T00:39:30.907Z,31.97
2017-12-02T00:42:00.120Z,30.07
2017-12-02T00:44:29.376Z,30.80
2017-12-02T00:46:58.580Z,34.00
2017-12-02T00:49:28.572Z,35.60
2017-12-02T00:51:57.776Z,32.80
2017-12-02T00:54:27.016Z,31.53
2017-12-02T00:56:56.195Z,33.53
2017-12-02T00:59:25.457Z,31.63
2017-12-02T01:01:54.662Z,33.67
2017-12-02T01:04:23.914Z,31.80
2017-12-02T01:06:53.114Z,35.33
2017-12-02T01:09:22.351Z,34.37
2017-12-02T01:11:51.563Z,34.80
2017-12-02T01:14:21.543Z,33.27
2017-12-02T01:16:50.773Z,34.03
2017-12-02T01:19:19.983Z,35.67
2017-12-02T01:21:49.987Z,34.70
2017-12-02T01:24:19.279Z,34.03
2017-12-02T01:26:48.487Z,33.17
2017-12-02T01:29:18.482Z,32.90
2017-12-02T01:31:48.490Z,32.10
2017-12-02T01:34:17.675Z,34.30
2017-12-02T01:36:46.902Z,32.80
2017-12-02T01:39:16.103Z,30.20
2017-12-02T01:41:45.367Z,32.20
2017-12-02T01:44:14.567Z,34.43
2017-12-02T01:46:43.812Z,33.20
2017-12-02T01:49:13.783Z,34.00
2017-12-02T01:51:42.999Z,34.97
2017-12-02T01:54:12.221Z,35.73
2017-12-02T01:56:42.252Z,31.70
2017-12-02T01:59:12.174Z,34.60
2017-12-02T02:01:41.378Z,34.70
2017-12-02T02:04:10.628Z,34.37
2017-12-02T02:06:39.835Z,35.17
2017-12-02T02:09:09.062Z,34.67
2017-12-02T02:11:38.262Z,39.27
2017-12-02T02:14:07.478Z,36.57
2017-12-02T02:16:36.715Z,36.57
2017-12-02T02:19:05.944Z,35.33
2017-12-02T02:21:35.177Z,40.20
2017-12-02T02:24:04.384Z,38.77
2017-12-02T02:26:33.575Z,39.60
2017-12-02T02:29:02.791Z,39.57
2017-12-02T02:31:32.002Z,40.37
2017-12-02T02:34:01.237Z,38.40
2017-12-02T02:36:30.708Z,40.57
2017-12-02T02:38:59.911Z,41.33
2017-12-02T02:41:29.902Z,41.90
2017-12-02T02:43:59.171Z,40.63
2017-12-02T02:46:29.189Z,43.77
2017-12-02T02:48:59.130Z,44.10
2017-12-02T02:51:28.348Z,45.60
2017-12-02T02:53:57.604Z,42.87
2017-12-02T02:56:26.808Z,46.40
2017-12-02T02:58:56.018Z,46.90
2017-12-02T03:01:25.278Z,45.40
2017-12-02T03:03:54.520Z,44.67
2017-12-02T03:06:23.741Z,44.97
2017-12-02T03:08:52.946Z,44.20
2017-12-02T03:11:22.928Z,46.47
2017-12-02T03:13:52.147Z,47.87
2017-12-02T03:16:21.407Z,47.10
2017-12-02T03:18:50.626Z,45.07
2017-12-02T03:21:19.856Z,49.30
2017-12-02T03:23:49.838Z,46.57
2017-12-02T03:26:19.024Z,47.50
2017-12-02T03:28:48.304Z,43.87
2017-12-02T03:31:17.532Z,44.07
2017-12-02T03:33:46.733Z,46.57
2017-12-02T03:36:15.931Z,45.60
2017-12-02T03:38:45.128Z,51.50
2017-12-02T03:41:14.388Z,50.73
2017-12-02T03:43:43.611Z,50.13
2017-12-02T03:46:12.815Z,47.60
2017-12-02T03:48:42.020Z,52.33
2017-12-02T03:51:11.231Z,46.17
2017-12-02T03:53:40.431Z,48.83
2017-12-02T03:56:10.424Z,48.67
2017-12-02T03:58:39.634Z,53.63
2017-12-02T04:01:09.632Z,49.50
2017-12-02T04:03:38.968Z,53.70
2017-12-02T04:06:08.211Z,50.77
2017-12-02T04:08:37.471Z,45.60
2017-12-02T04:11:07.487Z,44.30
2017-12-02T04:13:37.456Z,44.57
2017-12-02T04:16:06.650Z,41.03
2017-12-02T04:18:35.856Z,38.40
2017-12-02T04:21:05.050Z,40.20
2017-12-02T04:23:34.263Z,50.07
2017-12-02T04:26:03.464Z,43.17
2017-12-02T04:28:32.744Z,38.73
2017-12-02T04:31:01.948Z,49.50
2017-12-02T04:33:31.210Z,58.70
2017-12-02T04:36:00.423Z,44.83
2017-12-02T04:38:29.628Z,44.50
2017-12-02T04:40:58.895Z,38.23
2017-12-02T04:43:28.091Z,37.80
2017-12-02T04:45:57.330Z,38.57
2017-12-02T04:48:26.528Z,39.43
2017-12-02T04:50:55.738Z,38.13
2017-12-02T04:53:24.942Z,37.93
2017-12-02T04:55:54.175Z,35.73
2017-12-02T04:58:23.394Z,33.67
2017-12-02T05:00:52.626Z,34.93
2017-12-02T05:03:21.849Z,36.17
2017-12-02T05:05:51.794Z,35.77
2017-12-02T05:08:21.008Z,37.17
2017-12-02T05:10:50.196Z,32.70
2017-12-02T05:13:19.395Z,32.27
2017-12-02T05:15:48.572Z,32.83
2017-12-02T05:18:17.775Z,35.90
2017-12-02T05:20:47.007Z,35.03
2017-12-02T05:23:16.221Z,36.47
2017-12-02T05:25:45.419Z,40.63
2017-12-02T05:28:14.639Z,38.20
2017-12-02T05:30:44.626Z,37.43
2017-12-02T05:33:13.824Z,39.53
2017-12-02T05:35:43.060Z,38.50
2017-12-02T05:38:13.214Z,45.03
2017-12-02T05:40:42.452Z,39.60
2017-12-02T05:43:11.675Z,40.70
2017-12-02T05:45:41.672Z,35.63
2017-12-02T05:48:11.649Z,34.90
2017-12-02T05:50:40.900Z,37.37
2017-12-02T05:53:10.854Z,39.93
2017-12-02T05:55:40.084Z,40.57
2017-12-02T05:58:10.847Z,40.13
2017-12-02T06:00:43.007Z,36.00
2017-12-02T06:03:12.216Z,35.40
2017-12-02T06:05:42.185Z,41.93
2017-12-02T06:08:11.407Z,47.87
2017-12-02T06:10:40.596Z,39.73
2017-12-02T06:13:11.072Z,51.17
2017-12-02T06:15:40.259Z,38.10
2017-12-02T06:18:09.474Z,44.13
2017-12-02T06:20:38.656Z,44.03
2017-12-02T06:23:07.884Z,38.37
2017-12-02T06:25:37.097Z,37.20
2017-12-02T06:28:06.283Z,40.00
2017-12-02T06:30:35.506Z,36.23
2017-12-02T06:33:04.751Z,35.60
2017-12-02T06:35:34.011Z,38.23
2017-12-02T06:38:03.976Z,35.10
2017-12-02T06:40:33.247Z,34.90
2017-12-02T06:43:02.447Z,33.70
2017-12-02T06:45:32.411Z,34.33
2017-12-02T06:48:01.638Z,31.60
2017-12-02T06:50:31.623Z,34.73
2017-12-02T06:53:00.867Z,30.30
2017-12-02T06:55:30.843Z,32.13
2017-12-02T06:58:00.355Z,31.93
2017-12-02T07:00:30.376Z,34.37
2017-12-02T07:03:00.534Z,33.40
2017-12-02T07:05:29.692Z,32.50
2017-12-02T07:07:59.676Z,38.03
2017-12-02T07:10:28.891Z,38.37
2017-12-02T07:12:58.195Z,35.87
2017-12-02T07:15:27.432Z,38.03
2017-12-02T07:17:56.617Z,39.00
2017-12-02T07:20:26.682Z,38.07
2017-12-02T07:22:56.092Z,37.57
2017-12-02T07:25:25.351Z,40.90
2017-12-02T07:27:54.550Z,40.33
2017-12-02T07:30:23.777Z,43.20
2017-12-02T07:32:52.978Z,43.63
2017-12-02T07:35:22.202Z,34.83
2017-12-02T07:37:51.420Z,34.37
2017-12-02T07:40:20.615Z,37.50
2017-12-02T07:42:49.852Z,35.27
2017-12-02T07:45:19.080Z,35.17
2017-12-02T07:47:48.320Z,38.93
2017-12-02T07:50:18.515Z,33.40
2017-12-02T07:52:47.743Z,35.13
2017-12-02T07:55:16.978Z,39.70
2017-12-02T07:57:46.958Z,39.20
2017-12-02T08:00:16.201Z,38.30
2017-12-02T08:02:45.446Z,39.20
2017-12-02T08:05:15.411Z,36.27
2017-12-02T08:07:44.631Z,35.33
2017-12-02T08:10:13.854Z,33.27
2017-12-02T08:12:43.898Z,33.17
2017-12-02T08:15:13.229Z,34.10
2017-12-02T08:17:42.437Z,31.50
2017-12-02T08:20:11.648Z,30.03
2017-12-02T08:22:40.858Z,30.07
2017-12-02T08:25:10.851Z,33.57
2017-12-02T08:27:40.048Z,31.83
2017-12-02T08:30:09.506Z,30.67
2017-12-02T08:32:38.758Z,29.83
2017-12-02T08:35:07.988Z,26.97
2017-12-02T08:37:37.941Z,25.47
2017-12-02T08:40:07.583Z,30.90
2017-12-02T08:42:36.830Z,28.87
2017-12-02T08:45:06.051Z,29.83
2017-12-02T08:47:36.044Z,27.30
2017-12-02T08:50:05.224Z,29.20
2017-12-02T08:52:34.420Z,29.63
2017-12-02T08:55:03.643Z,27.37
2017-12-02T08:57:32.870Z,28.77
2017-12-02T09:00:02.076Z,26.70
2017-12-02T09:02:31.279Z,24.13
2017-12-02T09:05:00.512Z,26.10
2017-12-02T09:07:29.786Z,22.20
2017-12-02T09:09:59.784Z,25.63
2017-12-02T09:12:29.043Z,25.97
2017-12-02T09:14:58.256Z,26.13
2017-12-02T09:17:27.523Z,26.73
2017-12-02T09:19:56.799Z,26.57
2017-12-02T09:22:26.778Z,27.57
2017-12-02T09:24:55.998Z,27.20
2017-12-02T09:27:25.212Z,27.23
2017-12-02T09:29:55.183Z,28.23
2017-12-02T09:32:24.418Z,29.47
2017-12-02T09:34:54.379Z,27.43
2017-12-02T09:37:23.600Z,26.87
2017-12-02T09:39:52.809Z,29.83
2017-12-02T09:42:22.020Z,30.53
2017-12-02T09:44:52.073Z,28.20
2017-12-02T09:47:21.263Z,31.13
2017-12-02T09:49:50.644Z,32.33
2017-12-02T09:52:20.783Z,29.63
2017-12-02T09:54:51.167Z,30.63
2017-12-02T09:57:23.396Z,28.37
2017-12-02T09:59:53.381Z,30.17
2017-12-02T10:02:23.429Z,29.67
2017-12-02T10:04:53.431Z,31.00
2017-12-02T10:07:22.624Z,30.90
2017-12-02T10:09:52.634Z,29.90
2017-12-02T10:12:22.597Z,29.80
2017-12-02T10:14:51.882Z,28.40
2017-12-02T10:17:21.100Z,30.50
2017-12-02T10:19:50.320Z,30.80
2017-12-02T10:22:20.325Z,28.10
2017-12-02T10:24:49.557Z,28.37
2017-12-02T10:27:18.802Z,27.60
2017-12-02T10:29:48.794Z,29.20
2017-12-02T10:32:18.009Z,31.70
2017-12-02T10:34:47.240Z,30.70
2017-12-02T10:37:16.431Z,26.70
2017-12-02T10:39:46.698Z,43.03
2017-12-02T10:42:15.975Z,31.60
2017-12-02T10:44:45.943Z,27.40
2017-12-02T10:47:15.158Z,26.03
2017-12-02T10:49:44.362Z,27.03
2017-12-02T10:52:13.579Z,26.27
2017-12-02T10:54:43.633Z,27.00
2017-12-02T10:57:12.853Z,28.40
2017-12-02T10:59:42.081Z,29.70
2017-12-02T11:02:12.045Z,27.90
2017-12-02T11:04:41.291Z,29.60
2017-12-02T11:07:10.497Z,32.13
2017-12-02T11:09:40.474Z,32.30
2017-12-02T11:12:09.719Z,33.50
2017-12-02T11:14:39.675Z,29.37
2017-12-02T11:17:08.905Z,32.43
2017-12-02T11:19:38.120Z,34.53
2017-12-02T11:22:08.181Z,33.17
2017-12-02T11:24:38.199Z,32.80
2017-12-02T11:27:07.480Z,30.23
2017-12-02T11:29:36.764Z,32.47
2017-12-02T11:32:06.842Z,34.60
2017-12-02T11:34:36.090Z,35.20
2017-12-02T11:37:05.323Z,31.50
2017-12-02T11:39:34.580Z,33.13
2017-12-02T11:42:03.823Z,34.50
2017-12-02T11:44:33.147Z,32.80
2017-12-02T11:47:02.339Z,30.03
2017-12-02T11:49:31.576Z,31.23
2017-12-02T11:52:01.619Z,32.30
2017-12-02T11:54:30.891Z,33.30
2017-12-02T11:57:00.171Z,31.13
2017-12-02T11:59:30.222Z,36.87
2017-12-02T12:01:59.454Z,30.10
2017-12-02T12:04:29.509Z,28.80
2017-12-02T12:06:59.511Z,29.20
2017-12-02T12:09:28.804Z,28.10
2017-12-02T12:11:58.014Z,27.27
2017-12-02T12:14:27.228Z,32.57
2017-12-02T12:16:57.220Z,30.20
2017-12-02T12:19:26.443Z,27.00
2017-12-02T12:21:55.716Z,26.10
2017-12-02T12:24:24.968Z,26.43
2017-12-02T12:26:54.199Z,27.37
2017-12-02T12:29:23.498Z,25.67
2017-12-02T12:31:52.704Z,24.73
2017-12-02T12:34:21.920Z,26.47
2017-12-02T12:36:51.900Z,26.47
2017-12-02T12:39:21.139Z,26.10
2017-12-02T12:41:51.119Z,23.30
2017-12-02T12:44:20.349Z,26.67
2017-12-02T12:46:50.328Z,25.50
2017-12-02T12:49:19.552Z,25.03
2017-12-02T12:51:49.536Z,26.17
2017-12-02T12:54:18.770Z,23.83
2017-12-02T12:56:48.790Z,24.73
2017-12-02T12:59:18.008Z,26.23
2017-12-02T13:01:47.236Z,25.17
2017-12-02T13:04:16.468Z,20.97
2017-12-02T13:06:45.635Z,22.73
2017-12-02T13:09:14.927Z,21.23
2017-12-02T13:11:44.151Z,22.90
2017-12-02T13:14:13.393Z,21.87
2017-12-02T13:16:42.616Z,22.80
2017-12-02T13:19:11.840Z,23.83
2017-12-02T13:21:41.068Z,22.47
2017-12-02T13:24:11.099Z,22.43
2017-12-02T13:26:41.072Z,21.77
2017-12-02T13:29:10.306Z,23.30
2017-12-02T13:31:39.497Z,22.43
2017-12-02T13:34:09.494Z,22.17
2017-12-02T13:36:38.757Z,21.43
2017-12-02T13:39:08.747Z,22.23
2017-12-02T13:41:37.980Z,22.67
2017-12-02T13:44:07.221Z,23.37
2017-12-02T13:46:37.247Z,20.60
2017-12-02T13:49:07.219Z,23.40
2017-12-02T13:51:36.467Z,23.27
2017-12-02T13:54:05.684Z,23.10
2017-12-02T13:56:34.904Z,22.53
2017-12-02T13:59:04.126Z,23.70
2017-12-02T14:01:33.384Z,23.63
2017-12-02T14:04:03.399Z,23.67
2017-12-02T14:06:32.600Z,24.47
2017-12-02T14:09:01.843Z,24.20
2017-12-02T14:11:31.824Z,24.03
2017-12-02T14:14:01.043Z,25.90
2017-12-02T14:16:30.287Z,25.83
2017-12-02T14:18:59.503Z,26.00
2017-12-02T14:21:28.824Z,25.03
2017-12-02T14:23:58.031Z,23.63
2017-12-02T14:26:27.263Z,23.93
2017-12-02T14:28:57.260Z,25.33
2017-12-02T14:31:27.264Z,24.00
2017-12-02T14:33:56.519Z,23.97
2017-12-02T14:36:25.803Z,23.03
2017-12-02T14:38:55.775Z,21.47
2017-12-02T14:41:25.095Z,23.70
2017-12-02T14:43:54.316Z,22.40
2017-12-02T14:46:24.298Z,23.23
2017-12-02T14:48:53.545Z,23.80
2017-12-02T14:51:22.782Z,22.50
2017-12-02T14:53:51.983Z,22.53
2017-12-02T14:56:21.939Z,20.90
2017-12-02T14:58:51.159Z,21.57
2017-12-02T15:01:20.436Z,22.07
2017-12-02T15:03:50.469Z,23.40
2017-12-02T15:06:19.706Z,24.17
2017-12-02T15:08:48.940Z,21.97
2017-12-02T15:11:18.984Z,23.13
2017-12-02T15:13:48.259Z,23.33
2017-12-02T15:16:18.237Z,20.47
2017-12-02T15:18:47.472Z,22.20
2017-12-02T15:21:17.491Z,21.27
2017-12-02T15:23:47.478Z,19.40
2017-12-02T15:26:16.662Z,19.20
2017-12-02T15:28:45.880Z,18.97
2017-12-02T15:31:15.863Z,24.63
2017-12-02T15:33:45.088Z,24.77
2017-12-02T15:36:14.315Z,22.43
2017-12-02T15:38:43.523Z,20.53
2017-12-02T15:41:12.719Z,21.93
2017-12-02T15:43:41.959Z,26.57
2017-12-02T15:46:11.181Z,22.60
2017-12-02T15:48:40.413Z,20.87
2017-12-02T15:51:09.642Z,21.30
2017-12-02T15:53:39.032Z,19.50
2017-12-02T15:56:08.227Z,19.97
2017-12-02T15:58:37.441Z,18.60
2017-12-02T16:01:06.686Z,19.00
2017-12-02T16:03:36.664Z,18.00
2017-12-02T16:06:06.666Z,17.47
2017-12-02T16:08:35.881Z,18.90
2017-12-02T16:11:05.130Z,18.90
2017-12-02T16:13:34.361Z,19.10
2017-12-02T16:16:03.649Z,21.13
2017-12-02T16:18:32.813Z,18.53
2017-12-02T16:21:02.051Z,18.90
2017-12-02T16:23:32.023Z,19.63
2017-12-02T16:26:01.990Z,21.13
2017-12-02T16:28:31.281Z,19.63
2017-12-02T16:31:00.518Z,19.50
2017-12-02T16:33:29.747Z,23.40
2017-12-02T16:35:58.964Z,22.10
2017-12-02T16:38:28.194Z,24.97
2017-12-02T16:40:57.491Z,28.27
2017-12-02T16:43:26.719Z,24.20
2017-12-02T16:45:56.713Z,22.90
2017-12-02T16:48:25.939Z,27.47
2017-12-02T16:50:55.212Z,24.90
2017-12-02T16:53:24.454Z,23.00
2017-12-02T16:55:53.649Z,21.70
2017-12-02T16:58:22.895Z,24.13
2017-12-02T17:00:52.112Z,24.27
2017-12-02T17:03:21.327Z,22.17
2017-12-02T17:05:51.361Z,22.43
2017-12-02T17:08:20.579Z,24.10
2017-12-02T17:10:49.862Z,24.20
2017-12-02T17:13:19.175Z,24.47
2017-12-02T17:15:48.441Z,23.37
2017-12-02T17:18:18.487Z,22.33
2017-12-02T17:20:47.751Z,23.37
2017-12-02T17:23:17.726Z,24.60
2017-12-02T17:25:47.015Z,22.77
2017-12-02T17:28:16.238Z,25.07
2017-12-02T17:30:46.254Z,24.87
2017-12-02T17:33:15.486Z,24.20
2017-12-02T17:35:44.743Z,22.90
2017-12-02T17:38:14.028Z,23.30
2017-12-02T17:40:43.536Z,24.63
2017-12-02T17:43:12.743Z,24.40
2017-12-02T17:45:41.943Z,24.17
2017-12-02T17:48:11.226Z,23.50
2017-12-02T17:50:40.464Z,23.93
2017-12-02T17:53:10.476Z,24.60
2017-12-02T17:55:40.567Z,23.80
2017-12-02T17:58:09.799Z,26.47
2017-12-02T18:00:39.188Z,29.40
2017-12-02T18:03:08.411Z,27.90
2017-12-02T18:05:38.394Z,26.00
2017-12-02T18:08:07.631Z,26.70
2017-12-02T18:10:36.939Z,31.17
2017-12-02T18:13:07.002Z,31.17
2017-12-02T18:15:36.965Z,34.37
2017-12-02T18:18:06.272Z,37.40
2017-12-02T18:20:36.289Z,28.67
2017-12-02T18:23:05.527Z,26.73
2017-12-02T18:25:34.773Z,26.50
2017-12-02T18:28:04.910Z,27.00
2017-12-02T18:30:34.212Z,28.20
2017-12-02T18:33:03.516Z,28.00
2017-12-02T18:35:32.734Z,28.90
2017-12-02T18:38:01.946Z,27.37
2017-12-02T18:40:31.181Z,26.43
2017-12-02T18:43:01.214Z,28.80
2017-12-02T18:45:30.788Z,26.80
2017-12-02T18:48:00.083Z,25.87
2017-12-02T18:50:29.309Z,26.87
2017-12-02T18:52:59.004Z,26.43
2017-12-02T18:55:29.086Z,25.03
2017-12-02T18:57:58.666Z,27.47
2017-12-02T19:00:28.768Z,30.43
2017-12-02T19:02:58.075Z,32.60
2017-12-02T19:05:28.046Z,28.90
2017-12-02T19:07:57.259Z,30.50
2017-12-02T19:10:26.497Z,25.80
2017-12-02T19:12:56.097Z,26.30
2017-12-02T19:15:25.372Z,29.63
2017-12-02T19:17:55.327Z,30.67
2017-12-02T19:20:24.571Z,38.93
2017-12-02T19:22:53.787Z,37.30
2017-12-02T19:25:23.064Z,34.40
2017-12-02T19:27:53.113Z,31.80
2017-12-02T19:30:22.340Z,31.43
2017-12-02T19:32:51.557Z,29.07
2017-12-02T19:35:22.337Z,28.30
2017-12-02T19:37:51.545Z,28.53
2017-12-02T19:40:20.809Z,27.40
2017-12-02T19:42:50.824Z,28.57
2017-12-02T19:45:20.893Z,29.50
2017-12-02T19:47:50.138Z,27.77
2017-12-02T19:50:19.419Z,27.90
2017-12-02T19:52:48.682Z,29.70
2017-12-02T19:55:18.662Z,30.30
2017-12-02T19:57:47.955Z,27.40
2017-12-02T20:00:17.996Z,28.70
2017-12-02T20:02:47.315Z,27.73
2017-12-02T20:05:16.589Z,27.00
2017-12-02T20:07:46.555Z,28.47
2017-12-02T20:10:15.825Z,30.37
2017-12-02T20:12:45.035Z,29.03
2017-12-02T20:15:14.688Z,28.47
2017-12-02T20:17:43.968Z,30.07
2017-12-02T20:20:13.200Z,31.57
2017-12-02T20:22:42.527Z,32.60
2017-12-02T20:25:11.794Z,34.07
2017-12-02T20:27:41.006Z,28.60
2017-12-02T20:30:10.297Z,31.03
2017-12-02T20:32:40.303Z,28.00
2017-12-02T20:35:09.617Z,27.10
2017-12-02T20:37:39.054Z,33.60
2017-12-02T20:40:08.287Z,32.27
2017-12-02T20:42:38.418Z,30.40
2017-12-02T20:45:07.632Z,30.80
2017-12-02T20:47:37.589Z,29.40
2017-12-02T20:50:06.840Z,31.60
2017-12-02T20:52:36.164Z,27.40
2017-12-02T20:55:05.405Z,28.67
2017-12-02T20:57:34.671Z,28.53
2017-12-02T21:00:03.936Z,29.20
2017-12-02T21:02:33.914Z,28.03
2017-12-02T21:05:03.180Z,27.33
2017-12-02T21:07:32.463Z,26.50
2017-12-02T21:10:01.691Z,26.30
2017-12-02T21:12:30.942Z,31.27
2017-12-02T21:15:00.981Z,27.33
2017-12-02T21:17:30.215Z,28.87
2017-12-02T21:19:59.441Z,27.90
2017-12-02T21:22:28.736Z,26.50
2017-12-02T21:24:58.795Z,26.10
2017-12-02T21:27:28.003Z,25.77
2017-12-02T21:29:57.316Z,26.37
2017-12-02T21:32:26.616Z,24.27
2017-12-02T21:34:55.877Z,23.10
2017-12-02T21:37:25.940Z,26.67
2017-12-02T21:39:55.214Z,24.23
2017-12-02T21:42:24.470Z,24.63
2017-12-02T21:44:54.540Z,23.37
2017-12-02T21:47:24.576Z,23.40
2017-12-02T21:49:53.817Z,23.60
2017-12-02T21:52:23.064Z,24.57
2017-12-02T21:54:52.327Z,23.43
2017-12-02T21:57:21.620Z,21.83
2017-12-02T21:59:51.647Z,24.90
2017-12-02T22:02:20.871Z,22.73
2017-12-02T22:04:50.879Z,23.37
2017-12-02T22:07:20.179Z,23.53
2017-12-02T22:09:49.435Z,44.60
2017-12-02T22:12:18.720Z,27.50
2017-12-02T22:14:48.927Z,21.97
2017-12-02T22:17:18.103Z,23.30
2017-12-02T22:19:48.107Z,22.10
2017-12-02T22:22:17.368Z,22.43
2017-12-02T22:24:46.618Z,22.90
2017-12-02T22:27:15.827Z,20.43
2017-12-02T22:29:45.104Z,23.33
2017-12-02T22:32:14.297Z,23.27
2017-12-02T22:34:43.709Z,24.40
2017-12-02T22:37:12.905Z,25.63
2017-12-02T22:39:42.191Z,23.90
2017-12-02T22:42:11.426Z,24.60
2017-12-02T22:44:40.681Z,22.17
2017-12-02T22:47:09.908Z,21.43
2017-12-02T22:49:39.212Z,22.10
2017-12-02T22:52:08.484Z,22.47
2017-12-02T22:54:37.704Z,22.57
2017-12-02T22:57:06.918Z,23.10
2017-12-02T22:59:36.138Z,22.63
2017-12-02T23:02:06.119Z,21.93
2017-12-02T23:04:36.087Z,23.37
2017-12-02T23:07:05.360Z,21.53
2017-12-02T23:09:34.575Z,21.80
2017-12-02T23:12:04.533Z,22.97
2017-12-02T23:14:33.740Z,23.80
2017-12-02T23:17:03.027Z,23.60
2017-12-02T23:19:32.262Z,23.13
2017-12-02T23:22:02.238Z,23.73
2017-12-02T23:24:31.470Z,22.97
2017-12-02T23:27:00.683Z,21.70
2017-12-02T23:29:30.746Z,22.27
2017-12-02T23:31:59.951Z,22.07
2017-12-02T23:34:29.174Z,20.87
2017-12-02T23:36:58.408Z,21.80
2017-12-02T23:39:27.615Z,22.57
2017-12-02T23:41:56.838Z,22.70
2017-12-02T23:44:26.819Z,20.90
2017-12-02T23:46:56.082Z,20.90
2017-12-02T23:49:25.329Z,22.07
2017-12-02T23:51:54.560Z,22.10
2017-12-02T23:54:23.813Z,22.17
2017-12-02T23:56:53.053Z,22.87
2017-12-02T23:59:22.294Z,19.97
